Time;durP1;ratioP1;P1;durP2;ratioP2;P2;SDS_P1;SDS_P2;PMS_P1;PMS_P2;Temp;Humidity;BMP_temperature;BMP_pressure;BME280_temperature;BME280_humidity;BME280_pressure;Samples;Min_cycle;Max_cycle;Signal;HPM_P1;HPM_P2
2022/06/30 00:04:26;;;;;;;4.80;1.45;;;22.90;53.30;;;;;;20821425;28;20677;-75
2022/06/30 00:14:27;;;;;;;2.35;1.08;;;23.00;53.20;;;;;;20885968;28;20111;-74
2022/06/30 00:24:27;;;;;;;4.18;1.58;;;23.00;53.10;;;;;;20860969;28;20581;-75
2022/06/30 00:34:28;;;;;;;2.35;1.00;;;23.00;53.10;;;;;;20877513;28;20036;-75
2022/06/30 00:44:28;;;;;;;5.35;1.50;;;23.00;53.20;;;;;;21323854;22;20679;-74
2022/06/30 00:54:30;;;;;;;1.63;0.88;;;22.90;53.20;;;;;;21016777;28;20442;-75
2022/06/30 01:04:30;;;;;;;2.25;1.13;;;22.90;53.20;;;;;;21023795;28;20040;-74
2022/06/30 01:14:33;;;;;;;1.77;1.15;;;22.90;53.30;;;;;;21022946;28;20028;-76
2022/06/30 01:24:33;;;;;;;2.20;1.40;;;22.90;53.30;;;;;;21007043;28;20066;-76
2022/06/30 01:34:34;;;;;;;2.33;1.02;;;22.80;53.40;;;;;;21039558;28;20055;-76
2022/06/30 01:44:34;;;;;;;1.98;1.20;;;22.80;53.40;;;;;;21055207;28;20040;-74
2022/06/30 01:54:35;;;;;;;2.80;1.40;;;22.80;53.50;;;;;;21021947;28;20073;-75
2022/06/30 02:04:47;;;;;;;4.30;1.20;;;22.70;53.50;;;;;;21017347;28;20032;-75
2022/06/30 02:14:48;;;;;;;3.55;1.27;;;22.70;53.60;;;;;;21057943;28;20096;-75
2022/06/30 02:24:49;;;;;;;2.05;1.30;;;22.70;53.70;;;;;;21054103;28;20071;-76
2022/06/30 02:34:50;;;;;;;3.72;0.98;;;22.60;53.60;;;;;;21070133;28;20060;-76
2022/06/30 02:44:50;;;;;;;1.92;1.13;;;22.60;53.70;;;;;;21057672;28;20028;-74
2022/06/30 02:54:51;;;;;;;3.50;1.43;;;22.60;53.80;;;;;;21068660;28;20107;-75
2022/06/30 03:04:52;;;;;;;2.75;1.55;;;22.50;53.90;;;;;;21042066;28;20564;-75
2022/06/30 03:14:52;;;;;;;2.03;1.33;;;22.50;53.90;;;;;;21051740;28;20024;-75
2022/06/30 03:24:53;;;;;;;3.40;1.30;;;22.40;54.00;;;;;;20966970;28;20299;-75
2022/06/30 03:34:53;;;;;;;1.40;1.23;;;22.40;54.20;;;;;;21029732;28;20119;-75
2022/06/30 03:44:54;;;;;;;1.80;1.40;;;22.40;54.40;;;;;;21035286;28;20127;-75
2022/06/30 03:54:54;;;;;;;3.55;1.65;;;22.40;54.60;;;;;;21048858;28;20370;-75
2022/06/30 04:04:55;;;;;;;3.05;1.60;;;22.40;54.90;;;;;;21062900;28;20719;-75
2022/06/30 04:14:56;;;;;;;3.15;1.95;;;22.30;55.10;;;;;;21058669;28;20055;-79
2022/06/30 04:24:56;;;;;;;1.65;1.35;;;22.30;55.30;;;;;;21001515;28;20040;-75
2022/06/30 04:34:59;;;;;;;3.35;2.08;;;22.30;55.50;;;;;;21020909;28;20035;-78
2022/06/30 04:44:59;;;;;;;8.50;1.80;;;22.30;55.80;;;;;;21039684;28;20426;-78
2022/06/30 04:55:00;;;;;;;3.05;2.03;;;22.20;56.60;;;;;;21038518;28;20118;-76
2022/06/30 05:05:01;;;;;;;5.47;1.80;;;22.20;57.00;;;;;;21037443;28;20043;-78
2022/06/30 05:15:01;;;;;;;2.67;1.98;;;22.20;57.10;;;;;;21037028;28;20452;-76
2022/06/30 05:35:22;;;;;;;3.15;1.98;;;22.20;57.50;;;;;;21035075;28;20271;-78
2022/06/30 05:45:22;;;;;;;2.72;1.80;;;22.20;57.80;;;;;;21053844;28;20059;-77
2022/06/30 05:55:23;;;;;;;4.35;1.70;;;22.20;58.00;;;;;;21027299;28;20039;-78
2022/06/30 06:05:23;;;;;;;2.40;1.70;;;22.20;58.10;;;;;;21051459;28;20040;-78
2022/06/30 06:15:24;;;;;;;2.88;1.73;;;22.20;58.30;;;;;;21034072;28;20067;-78
2022/06/30 06:25:24;;;;;;;3.45;1.77;;;22.20;58.40;;;;;;21033593;28;20036;-78
2022/06/30 06:35:25;;;;;;;2.78;2.13;;;22.30;58.60;;;;;;21000760;28;20024;-78
2022/06/30 06:45:26;;;;;;;4.77;1.73;;;22.20;58.80;;;;;;21035549;28;20067;-78
2022/06/30 06:55:26;;;;;;;4.53;2.22;;;22.30;59.20;;;;;;21051181;28;20274;-78
2022/06/30 07:05:27;;;;;;;3.55;1.80;;;22.30;59.50;;;;;;21009114;28;20517;-78
2022/06/30 07:15:28;;;;;;;2.65;1.88;;;22.30;59.70;;;;;;21022857;28;20032;-77
2022/06/30 07:25:28;;;;;;;3.37;2.13;;;22.30;59.80;;;;;;21016525;28;20036;-77
2022/06/30 07:35:29;;;;;;;3.63;2.15;;;22.30;60.00;;;;;;21042908;28;20364;-77
2022/06/30 07:45:30;;;;;;;2.90;2.00;;;22.40;60.00;;;;;;21006655;28;20048;-78
2022/06/30 07:55:31;;;;;;;4.28;2.25;;;22.40;60.10;;;;;;21023902;28;20044;-77
2022/06/30 08:05:32;;;;;;;3.13;2.13;;;22.40;60.00;;;;;;21041104;28;20046;-77
2022/06/30 08:15:32;;;;;;;5.28;2.33;;;22.50;60.10;;;;;;21038499;28;20036;-78
2022/06/30 08:25:33;;;;;;;2.87;2.50;;;22.50;60.00;;;;;;21048138;28;20072;-77
2022/06/30 08:35:34;;;;;;;3.28;2.10;;;22.70;60.30;;;;;;21022789;28;20294;-77
2022/06/30 08:45:34;;;;;;;4.18;2.00;;;22.70;60.20;;;;;;21042425;28;20036;-78
2022/06/30 08:55:35;;;;;;;4.28;2.00;;;22.80;60.00;;;;;;21037203;28;20038;-78
2022/06/30 09:05:36;;;;;;;5.65;2.95;;;22.80;59.80;;;;;;21052344;28;20047;-78
2022/06/30 09:15:40;;;;;;;3.72;2.85;;;22.90;59.70;;;;;;21044239;28;20040;-78
2022/06/30 09:25:41;;;;;;;7.10;2.97;;;22.90;59.90;;;;;;21020042;28;20031;-79
2022/06/30 09:35:41;;;;;;;7.40;3.10;;;23.00;60.20;;;;;;21024379;28;20036;-78
2022/06/30 09:45:42;;;;;;;4.65;4.10;;;23.10;60.40;;;;;;21050770;28;20301;-77
2022/06/30 09:55:47;;;;;;;6.85;4.40;;;23.10;61.10;;;;;;21036642;28;20036;-77
2022/06/30 10:05:48;;;;;;;5.93;3.45;;;23.20;62.00;;;;;;21016818;28;20481;-74
2022/06/30 10:15:53;;;;;;;7.70;5.75;;;23.30;62.30;;;;;;21001460;28;20039;-77
2022/06/30 10:25:55;;;;;;;6.40;4.88;;;23.30;62.90;;;;;;21026554;28;20044;-76
2022/06/30 10:36:08;;;;;;;7.07;5.20;;;23.40;63.20;;;;;;21008330;28;20501;-80
2022/06/30 10:46:08;;;;;;;8.25;4.70;;;23.50;63.60;;;;;;21045165;28;20035;-76
2022/06/30 10:56:09;;;;;;;7.18;4.70;;;23.50;64.40;;;;;;21036406;28;20089;-77
2022/06/30 11:06:15;;;;;;;5.10;4.18;;;23.40;63.10;;;;;;21028706;28;20036;-78
2022/06/30 11:16:19;;;;;;;7.40;4.97;;;23.50;62.40;;;;;;21065548;28;20189;-74
2022/06/30 11:36:40;;;;;;;6.07;3.92;;;23.50;62.00;;;;;;21065310;28;20066;-83
2022/06/30 11:46:50;;;;;;;6.03;4.15;;;23.50;61.80;;;;;;21034972;28;20036;-82
2022/06/30 11:56:53;;;;;;;5.65;4.20;;;23.50;61.30;;;;;;20982030;28;20039;-80
2022/06/30 12:06:54;;;;;;;5.03;4.40;;;23.60;61.30;;;;;;21030395;28;20089;-77
2022/06/30 12:16:55;;;;;;;7.43;4.70;;;23.60;61.60;;;;;;21046220;28;20505;-80
2022/06/30 12:27:00;;;;;;;8.25;4.45;;;23.60;61.50;;;;;;21062772;28;20039;-77
2022/06/30 12:37:01;;;;;;;;;;;23.60;61.30;;;;;;20978624;28;20402;-73
2022/06/30 12:47:08;;;;;;;5.95;4.18;;;23.70;61.40;;;;;;21021425;28;19924;-76
2022/06/30 12:57:08;;;;;;;7.45;4.20;;;23.70;61.20;;;;;;21042326;28;20040;-76
2022/06/30 13:07:09;;;;;;;4.72;3.83;;;23.70;61.00;;;;;;21057431;28;20059;-77
2022/06/30 13:17:10;;;;;;;6.50;4.70;;;23.70;60.80;;;;;;21009619;28;20035;-75
2022/06/30 13:27:12;;;;;;;5.68;4.22;;;23.70;60.70;;;;;;20985821;28;20473;-75
2022/06/30 13:37:16;;;;;;;6.90;4.68;;;23.80;60.60;;;;;;21022312;28;20024;-81
2022/06/30 13:47:17;;;;;;;5.63;4.27;;;23.90;60.50;;;;;;21023650;28;20485;-77
2022/06/30 13:57:17;;;;;;;7.88;3.78;;;23.90;60.30;;;;;;21039821;28;20032;-77
2022/06/30 14:07:18;;;;;;;5.93;3.78;;;24.00;60.30;;;;;;21069966;28;20059;-77
2022/06/30 14:17:18;;;;;;;5.07;3.63;;;24.10;60.10;;;;;;21054045;28;20038;-77
2022/06/30 14:27:19;;;;;;;7.73;3.83;;;24.10;60.10;;;;;;21045680;28;20036;-78
2022/06/30 14:37:20;;;;;;;6.00;4.35;;;24.20;60.00;;;;;;21074428;28;20317;-79
2022/06/30 14:47:21;;;;;;;5.32;4.10;;;24.20;59.80;;;;;;21046272;28;20127;-79
2022/06/30 14:57:21;;;;;;;5.90;3.88;;;24.30;59.70;;;;;;21040099;28;20429;-79
2022/06/30 15:07:22;;;;;;;5.35;4.05;;;24.40;59.50;;;;;;21054751;28;20032;-77
2022/06/30 15:17:23;;;;;;;5.32;4.15;;;24.50;59.30;;;;;;21053361;28;20039;-79
2022/06/30 15:27:23;;;;;;;6.00;4.60;;;24.70;59.20;;;;;;21046188;28;20119;-77
2022/06/30 15:37:24;;;;;;;8.32;4.65;;;24.70;59.10;;;;;;21045854;28;20040;-75
2022/06/30 15:47:26;;;;;;;6.43;3.47;;;24.70;59.00;;;;;;21048904;28;20678;-75
2022/06/30 15:57:26;;;;;;;6.65;4.82;;;24.70;59.00;;;;;;21014033;28;20557;-80
2022/06/30 16:07:29;;;;;;;7.05;3.83;;;24.90;58.90;;;;;;21045143;28;20036;-76
2022/06/30 16:17:30;;;;;;;9.10;4.05;;;24.90;58.80;;;;;;21062661;28;20493;-81
2022/06/30 16:27:36;;;;;;;4.95;3.35;;;24.90;58.70;;;;;;21040574;28;20036;-77
2022/06/30 16:37:37;;;;;;;6.70;4.03;;;25.00;58.60;;;;;;21024608;28;20040;-74
2022/06/30 16:47:43;;;;;;;6.13;4.03;;;25.00;58.70;;;;;;21022058;28;20051;-74
2022/06/30 16:57:44;;;;;;;18.30;11.73;;;24.90;58.80;;;;;;21017493;28;20040;-72
2022/06/30 17:07:44;;;;;;;8.82;6.57;;;24.90;59.10;;;;;;21021423;28;20649;-77
2022/06/30 17:17:45;;;;;;;7.47;4.80;;;25.10;58.90;;;;;;21030099;28;20115;-73
2022/06/30 17:27:45;;;;;;;5.18;3.67;;;25.10;58.70;;;;;;20982016;28;20126;-70
2022/06/30 17:37:47;;;;;;;6.75;3.05;;;25.20;58.60;;;;;;21036561;28;20047;-75
2022/06/30 17:47:48;;;;;;;3.97;2.87;;;25.30;58.60;;;;;;21020376;28;20048;-74
2022/06/30 17:57:50;;;;;;;7.37;3.20;;;25.20;58.50;;;;;;21020372;28;20282;-77
2022/06/30 18:18:10;;;;;;;7.20;4.15;;;25.20;58.60;;;;;;21016155;28;20028;-75
2022/06/30 18:28:11;;;;;;;4.15;3.05;;;25.20;58.60;;;;;;20988616;28;20050;-75
2022/06/30 18:38:12;;;;;;;4.23;2.93;;;25.20;58.60;;;;;;21005066;28;20044;-75
2022/06/30 18:48:12;;;;;;;4.35;2.95;;;25.20;58.70;;;;;;21045779;28;20293;-75
2022/06/30 18:58:13;;;;;;;9.87;4.03;;;25.10;58.80;;;;;;21019820;28;20039;-85
2022/06/30 19:08:13;;;;;;;5.33;3.43;;;25.10;58.90;;;;;;21009428;28;20322;-73
2022/06/30 19:18:14;;;;;;;4.95;2.72;;;25.00;59.00;;;;;;21027830;28;20115;-76
2022/06/30 19:28:16;;;;;;;7.72;3.08;;;24.90;59.00;;;;;;21030520;28;20036;-75
2022/06/30 19:38:16;;;;;;;4.65;2.88;;;24.90;59.20;;;;;;21024200;28;20047;-75
2022/06/30 19:48:17;;;;;;;6.97;3.97;;;24.90;59.20;;;;;;21031299;28;20028;-75
2022/06/30 19:58:18;;;;;;;6.38;3.90;;;24.90;59.50;;;;;;21015119;28;20039;-76
2022/06/30 20:18:39;;;;;;;9.48;4.35;;;24.90;60.30;;;;;;21057169;28;20274;-76
2022/06/30 20:28:41;;;;;;;6.70;3.42;;;24.90;60.50;;;;;;21041201;28;20132;-76
2022/06/30 20:38:44;;;;;;;10.45;4.38;;;24.80;60.60;;;;;;21029269;28;20043;-76
2022/06/30 20:59:03;;;;;;;11.43;4.82;;;24.80;61.00;;;;;;21057233;28;20075;-77
2022/06/30 21:09:04;;;;;;;8.38;4.20;;;24.80;61.30;;;;;;21036326;28;20145;-77
2022/06/30 21:19:05;;;;;;;6.25;4.50;;;24.70;61.60;;;;;;21039839;28;20545;-75
2022/06/30 21:29:07;;;;;;;6.13;4.73;;;24.70;62.00;;;;;;21040424;28;20055;-76
2022/06/30 21:39:07;;;;;;;8.27;5.15;;;24.70;62.90;;;;;;21010399;28;20032;-76
2022/06/30 21:49:08;;;;;;;7.00;4.43;;;24.70;62.60;;;;;;21017808;28;20082;-76
2022/06/30 21:59:08;;;;;;;6.25;4.80;;;24.70;62.90;;;;;;21038325;28;20062;-76
2022/06/30 22:09:09;;;;;;;10.45;5.38;;;24.60;63.00;;;;;;21045272;28;20456;-74
2022/06/30 22:19:09;;;;;;;10.77;4.50;;;24.60;63.20;;;;;;21020519;28;20681;-77
2022/06/30 22:29:10;;;;;;;5.63;4.40;;;24.60;63.40;;;;;;21034663;28;20064;-76
2022/06/30 22:39:11;;;;;;;5.65;4.60;;;24.50;63.40;;;;;;21065330;28;20432;-76
2022/06/30 22:49:11;;;;;;;10.32;5.60;;;24.50;63.60;;;;;;21067817;28;20698;-76
2022/06/30 22:59:12;;;;;;;6.97;4.37;;;24.50;63.80;;;;;;21044624;28;20115;-76
2022/06/30 23:09:13;;;;;;;8.23;5.38;;;24.50;63.90;;;;;;21029817;28;20060;-75
2022/06/30 23:19:13;;;;;;;7.30;5.35;;;24.40;64.00;;;;;;21010025;28;20035;-74
2022/06/30 23:29:14;;;;;;;7.60;4.72;;;24.40;64.10;;;;;;21044836;28;20066;-74
2022/06/30 23:39:15;;;;;;;8.20;5.25;;;24.40;64.10;;;;;;21001587;28;20059;-75
2022/06/30 23:49:15;;;;;;;6.93;4.55;;;24.40;64.20;;;;;;21043024;28;20102;-76
2022/06/30 23:59:17;;;;;;;5.17;4.67;;;24.30;64.30;;;;;;21009768;28;20032;-76
